createdAt,value
2018-08-19T00:00:01.762Z,19.71
2018-08-19T00:02:31.990Z,19.71
2018-08-19T00:05:15.434Z,19.67
2018-08-19T00:07:46.021Z,19.65
2018-08-19T00:10:16.788Z,19.66
2018-08-19T00:12:48.574Z,19.63
2018-08-19T00:15:18.770Z,19.63
2018-08-19T00:17:48.912Z,19.61
2018-08-19T00:20:19.106Z,19.59
2018-08-19T00:22:50.524Z,19.53
2018-08-19T00:25:42.153Z,19.51
2018-08-19T00:28:14.816Z,19.45
2018-08-19T00:30:45.183Z,19.40
2018-08-19T00:33:15.617Z,19.39
2018-08-19T00:35:45.779Z,19.36
2018-08-19T00:38:16.918Z,19.36
2018-08-19T00:40:46.996Z,19.34
2018-08-19T00:43:18.851Z,19.35
2018-08-19T00:45:49.088Z,19.32
2018-08-19T00:48:19.167Z,19.32
2018-08-19T00:50:49.297Z,19.33
2018-08-19T00:53:19.325Z,19.32
2018-08-19T00:55:51.318Z,19.27
2018-08-19T00:58:23.631Z,19.19
2018-08-19T01:00:56.397Z,19.09
2018-08-19T01:03:26.600Z,19.06
2018-08-19T01:05:56.801Z,19.02
2018-08-19T01:08:26.957Z,18.96
2018-08-19T01:10:57.127Z,18.91
2018-08-19T01:13:27.984Z,18.89
2018-08-19T01:15:58.165Z,18.90
2018-08-19T01:18:28.278Z,18.87
2018-08-19T01:21:10.598Z,18.85
2018-08-19T01:23:42.716Z,18.84
2018-08-19T01:26:14.038Z,18.83
2018-08-19T01:28:44.929Z,18.83
2018-08-19T01:31:15.679Z,18.80
2018-08-19T01:33:45.842Z,18.81
2018-08-19T01:36:16.405Z,18.82
2018-08-19T01:38:46.750Z,18.81
2018-08-19T01:41:16.838Z,18.78
2018-08-19T01:43:58.744Z,18.78
2018-08-19T01:46:30.393Z,18.79
2018-08-19T01:49:01.724Z,18.78
2018-08-19T01:51:32.339Z,18.80
2018-08-19T01:54:37.066Z,18.77
2018-08-19T01:57:07.410Z,18.76
2018-08-19T01:59:37.744Z,18.74
2018-08-19T02:02:08.510Z,18.74
2018-08-19T02:04:57.313Z,18.76
2018-08-19T02:07:27.732Z,18.73
2018-08-19T02:10:02.427Z,18.70
2018-08-19T02:12:39.716Z,18.66
2018-08-19T02:15:11.148Z,18.63
2018-08-19T02:18:15.708Z,18.64
2018-08-19T02:20:46.862Z,18.61
2018-08-19T02:23:17.079Z,18.59
2018-08-19T02:25:48.573Z,18.58
2018-08-19T02:28:22.597Z,18.58
2018-08-19T02:31:00.475Z,18.57
2018-08-19T02:33:33.650Z,18.56
2018-08-19T02:36:06.733Z,18.55
2018-08-19T02:38:38.076Z,18.52
2018-08-19T02:41:08.660Z,18.51
2018-08-19T02:43:46.597Z,18.49
2018-08-19T02:46:16.966Z,18.50
2018-08-19T02:48:51.071Z,18.47
2018-08-19T02:51:21.924Z,18.35
2018-08-19T02:53:54.342Z,18.34
2018-08-19T02:56:24.278Z,18.25
2018-08-19T02:58:54.517Z,18.19
2018-08-19T03:01:24.882Z,18.20
2018-08-19T03:03:56.905Z,18.13
2018-08-19T03:06:27.404Z,18.08
2018-08-19T03:09:00.118Z,17.99
2018-08-19T03:11:30.589Z,17.93
2018-08-19T03:14:01.701Z,17.93
2018-08-19T03:16:32.436Z,17.90
2018-08-19T03:19:02.573Z,17.87
2018-08-19T03:21:35.482Z,17.85
2018-08-19T03:24:07.292Z,17.81
2018-08-19T03:26:37.937Z,17.78
2018-08-19T03:29:14.786Z,17.79
2018-08-19T03:31:49.549Z,17.79
2018-08-19T03:34:19.870Z,17.83
2018-08-19T03:36:50.389Z,17.84
2018-08-19T03:39:21.322Z,17.84
2018-08-19T03:41:51.814Z,17.85
2018-08-19T03:44:22.206Z,17.86
2018-08-19T03:46:54.351Z,17.87
2018-08-19T03:49:25.674Z,17.87
2018-08-19T03:51:55.659Z,17.87
2018-08-19T03:54:26.627Z,17.88
2018-08-19T03:56:57.308Z,17.88
2018-08-19T03:59:27.832Z,17.88
2018-08-19T04:01:58.343Z,17.86
2018-08-19T04:04:28.730Z,17.85
2018-08-19T04:06:59.262Z,17.82
2018-08-19T04:09:29.461Z,17.78
2018-08-19T04:12:08.848Z,17.75
2018-08-19T04:14:39.351Z,17.64
2018-08-19T04:17:11.817Z,17.52
2018-08-19T04:19:44.427Z,17.55
2018-08-19T04:22:15.027Z,17.51
2018-08-19T04:24:46.227Z,17.50
2018-08-19T04:27:17.103Z,17.44
2018-08-19T04:29:47.593Z,17.41
2018-08-19T04:32:24.894Z,17.40
2018-08-19T04:34:55.444Z,17.41
2018-08-19T04:37:25.976Z,17.39
2018-08-19T04:39:56.554Z,17.40
2018-08-19T04:42:27.003Z,17.42
2018-08-19T04:44:57.366Z,17.44
2018-08-19T04:47:31.002Z,17.46
2018-08-19T04:50:01.071Z,17.39
2018-08-19T04:52:32.970Z,17.41
2018-08-19T04:55:03.259Z,17.47
2018-08-19T04:57:33.653Z,17.43
2018-08-19T05:00:04.116Z,17.46
2018-08-19T05:02:35.641Z,17.42
2018-08-19T05:05:06.058Z,17.38
2018-08-19T05:07:36.586Z,17.34
2018-08-19T05:10:07.264Z,17.42
2018-08-19T05:12:37.943Z,17.51
2018-08-19T05:15:08.266Z,17.44
2018-08-19T05:17:38.981Z,17.45
2018-08-19T05:20:15.856Z,17.48
2018-08-19T05:22:46.260Z,17.55
2018-08-19T05:25:16.982Z,17.60
2018-08-19T05:27:52.677Z,17.67
2018-08-19T05:30:23.088Z,17.74
2018-08-19T05:32:58.689Z,17.90
2018-08-19T05:35:29.297Z,18.15
2018-08-19T05:38:00.124Z,18.17
2018-08-19T05:40:31.004Z,18.17
2018-08-19T05:43:01.009Z,18.18
2018-08-19T05:45:31.288Z,18.22
2018-08-19T05:48:08.572Z,18.26
2018-08-19T05:50:39.012Z,18.30
2018-08-19T05:53:09.744Z,18.35
2018-08-19T05:55:41.622Z,18.39
2018-08-19T05:58:12.344Z,18.48
2018-08-19T06:00:44.908Z,18.55
2018-08-19T06:03:15.676Z,18.61
2018-08-19T06:05:46.279Z,18.66
2018-08-19T06:08:17.336Z,18.74
2018-08-19T06:10:48.615Z,18.78
2018-08-19T06:13:19.203Z,18.84
2018-08-19T06:15:49.859Z,18.90
2018-08-19T06:18:21.973Z,18.96
2018-08-19T06:20:52.463Z,19.04
2018-08-19T06:23:23.394Z,19.09
2018-08-19T06:25:56.013Z,19.13
2018-08-19T06:28:26.239Z,19.17
2018-08-19T06:30:57.300Z,19.22
2018-08-19T06:33:27.898Z,19.30
2018-08-19T06:35:57.764Z,19.33
2018-08-19T06:38:28.390Z,19.41
2018-08-19T06:40:58.708Z,19.49
2018-08-19T06:43:29.196Z,19.56
2018-08-19T06:45:59.362Z,19.62
2018-08-19T06:48:29.924Z,19.67
2018-08-19T06:51:00.500Z,19.80
2018-08-19T06:53:31.009Z,19.88
2018-08-19T06:56:01.223Z,19.98
2018-08-19T06:58:31.320Z,20.08
2018-08-19T07:01:01.545Z,20.18
2018-08-19T07:03:31.751Z,20.27
2018-08-19T07:06:11.439Z,20.34
2018-08-19T07:08:41.528Z,20.46
2018-08-19T07:11:12.172Z,20.49
2018-08-19T07:13:42.575Z,20.62
2018-08-19T07:16:12.651Z,20.68
2018-08-19T07:18:43.262Z,20.77
2018-08-19T07:34:20.002Z,20.88
2018-08-19T07:36:50.593Z,21.34
2018-08-19T07:39:23.113Z,21.43
2018-08-19T07:41:54.637Z,21.52
2018-08-19T07:44:25.281Z,21.62
2018-08-19T07:46:55.802Z,21.70
2018-08-19T07:49:27.033Z,21.77
2018-08-19T07:51:57.494Z,21.85
2018-08-19T07:54:27.893Z,21.92
2018-08-19T07:56:58.587Z,22.03
2018-08-19T07:59:29.892Z,22.14
2018-08-19T08:02:02.696Z,22.21
2018-08-19T08:04:37.893Z,22.30
2018-08-19T08:07:08.012Z,22.41
2018-08-19T08:09:38.236Z,22.49
2018-08-19T08:12:10.910Z,22.56
2018-08-19T08:14:55.874Z,22.66
2018-08-19T08:17:27.348Z,22.74
2018-08-19T08:20:02.409Z,22.78
2018-08-19T08:22:33.747Z,22.88
2018-08-19T08:25:06.879Z,22.95
2018-08-19T08:27:39.470Z,23.03
2018-08-19T08:30:12.647Z,23.12
2018-08-19T08:32:46.127Z,23.26
2018-08-19T08:35:16.573Z,23.40
2018-08-19T08:37:46.781Z,23.47
2018-08-19T08:53:21.593Z,24.10
2018-08-19T08:55:52.977Z,24.23
2018-08-19T08:58:23.263Z,24.31
2018-08-19T09:00:53.979Z,24.42
2018-08-19T09:03:24.721Z,24.56
2018-08-19T09:05:55.249Z,24.64
2018-08-19T09:08:26.842Z,24.69
2018-08-19T09:10:58.471Z,24.81
2018-08-19T09:13:34.569Z,24.90
2018-08-19T09:16:04.889Z,24.95
2018-08-19T09:18:34.998Z,24.96
2018-08-19T09:21:05.548Z,24.94
2018-08-19T09:23:36.020Z,25.03
2018-08-19T09:26:06.385Z,25.09
2018-08-19T09:28:36.679Z,25.17
2018-08-19T09:31:06.013Z,25.36
2018-08-19T09:33:36.952Z,25.49
2018-08-19T09:36:07.638Z,25.67
2018-08-19T09:38:37.834Z,25.79
2018-08-19T09:41:08.032Z,25.96
2018-08-19T09:43:38.696Z,26.00
2018-08-19T09:46:09.389Z,25.94
2018-08-19T09:48:39.645Z,25.98
2018-08-19T09:51:15.797Z,26.05
2018-08-19T09:53:46.146Z,26.14
2018-08-19T09:56:16.802Z,26.24
2018-08-19T09:58:52.085Z,26.32
2018-08-19T10:01:27.530Z,26.40
2018-08-19T10:03:58.005Z,26.37
2018-08-19T10:06:28.494Z,26.32
2018-08-19T10:08:58.867Z,26.51
2018-08-19T10:14:03.866Z,26.77
2018-08-19T10:16:44.673Z,26.80
2018-08-19T10:19:16.552Z,26.78
2018-08-19T10:21:46.816Z,26.81
2018-08-19T10:24:22.683Z,26.89
2018-08-19T10:26:54.063Z,26.96
2018-08-19T10:29:24.572Z,27.10
2018-08-19T10:32:03.115Z,27.10
2018-08-19T10:34:36.392Z,27.18
2018-08-19T10:37:06.735Z,27.22
2018-08-19T10:39:37.394Z,27.28
2018-08-19T10:42:21.307Z,27.40
2018-08-19T10:44:53.319Z,27.37
2018-08-19T10:47:23.809Z,27.40
2018-08-19T10:49:59.919Z,27.45
2018-08-19T10:52:31.289Z,27.53
2018-08-19T10:55:02.422Z,27.60
2018-08-19T10:57:32.934Z,27.66
2018-08-19T11:00:03.159Z,27.81
2018-08-19T11:02:33.242Z,27.94
2018-08-19T11:05:03.844Z,27.97
2018-08-19T11:07:34.276Z,28.05
2018-08-19T11:10:21.240Z,28.18
2018-08-19T11:12:54.717Z,28.40
2018-08-19T11:15:34.559Z,28.47
2018-08-19T11:18:22.855Z,28.48
2018-08-19T11:20:56.832Z,28.45
2018-08-19T11:23:28.717Z,28.49
2018-08-19T11:25:59.528Z,28.45
2018-08-19T11:28:39.752Z,28.54
2018-08-19T11:31:21.851Z,28.53
2018-08-19T11:33:53.505Z,28.58
2018-08-19T11:36:58.547Z,28.72
2018-08-19T11:39:34.274Z,28.85
2018-08-19T11:42:04.687Z,28.90
2018-08-19T11:44:36.285Z,28.88
2018-08-19T11:47:11.198Z,28.87
2018-08-19T11:49:45.781Z,28.96
2018-08-19T11:52:16.611Z,28.99
2018-08-19T11:54:46.241Z,28.94
2018-08-19T11:57:15.502Z,28.98
2018-08-19T11:59:46.892Z,29.11
2018-08-19T12:02:18.608Z,29.20
2018-08-19T12:04:48.295Z,29.22
2018-08-19T12:07:18.176Z,29.23
2018-08-19T12:10:06.846Z,29.30
2018-08-19T12:12:47.547Z,29.44
2018-08-19T12:15:16.856Z,29.53
2018-08-19T12:17:46.200Z,29.55
2018-08-19T12:20:23.245Z,29.63
2018-08-19T12:22:53.508Z,29.74
2018-08-19T12:25:23.723Z,29.88
2018-08-19T12:27:53.909Z,29.89
2018-08-19T12:30:25.478Z,29.85
2018-08-19T12:33:05.173Z,29.73
2018-08-19T12:35:35.287Z,29.71
2018-08-19T12:38:05.433Z,29.73
2018-08-19T12:40:39.230Z,29.78
2018-08-19T12:43:09.485Z,29.85
2018-08-19T13:18:28.956Z,30.19
2018-08-19T15:24:19.098Z,35.33
2018-08-19T15:26:49.819Z,35.22
2018-08-19T15:29:32.034Z,35.22
2018-08-19T15:32:03.961Z,34.94
2018-08-19T15:34:34.302Z,34.89
2018-08-19T15:37:05.448Z,35.00
2018-08-19T15:39:36.066Z,35.09
2018-08-19T15:42:06.505Z,35.21
2018-08-19T15:44:36.663Z,35.22
2018-08-19T15:47:07.345Z,35.27
2018-08-19T15:49:37.762Z,35.29
2018-08-19T15:52:08.544Z,35.22
2018-08-19T15:54:39.558Z,34.94
2018-08-19T15:57:09.965Z,34.76
2018-08-19T15:59:40.543Z,34.60
2018-08-19T16:02:11.147Z,34.43
2018-08-19T16:04:42.401Z,34.27
2018-08-19T16:07:12.754Z,34.15
2018-08-19T16:09:43.432Z,33.92
2018-08-19T16:12:13.878Z,33.82
2018-08-19T16:14:44.662Z,33.72
2018-08-19T16:17:15.925Z,33.12
2018-08-19T16:19:46.532Z,32.60
2018-08-19T16:22:17.242Z,32.33
2018-08-19T16:24:47.744Z,32.12
2018-08-19T16:27:18.493Z,31.72
2018-08-19T16:29:49.214Z,31.42
2018-08-19T16:32:20.333Z,31.24
2018-08-19T16:34:51.747Z,31.04
2018-08-19T16:37:22.349Z,30.85
2018-08-19T16:39:52.922Z,30.76
2018-08-19T16:42:24.315Z,30.62
2018-08-19T16:44:54.928Z,30.49
2018-08-19T16:47:25.062Z,30.31
2018-08-19T16:49:56.356Z,30.11
2018-08-19T16:52:27.506Z,29.86
2018-08-19T16:54:58.064Z,29.61
2018-08-19T16:57:28.446Z,29.42
2018-08-19T16:59:59.509Z,29.30
2018-08-19T17:02:30.124Z,29.16
2018-08-19T17:05:01.630Z,29.01
2018-08-19T17:07:33.063Z,28.96
2018-08-19T17:10:04.879Z,28.87
2018-08-19T17:12:35.908Z,28.72
2018-08-19T17:15:07.231Z,28.55
2018-08-19T17:17:37.934Z,28.40
2018-08-19T17:20:08.523Z,28.32
2018-08-19T17:22:40.760Z,28.21
2018-08-19T17:25:12.614Z,28.10
2018-08-19T17:27:42.992Z,28.00
2018-08-19T17:30:17.685Z,27.90
2018-08-19T17:32:52.103Z,27.78
2018-08-19T17:35:22.555Z,27.66
2018-08-19T17:37:53.928Z,27.57
2018-08-19T17:40:25.595Z,27.51
2018-08-19T17:42:56.102Z,27.45
2018-08-19T17:45:27.399Z,27.39
2018-08-19T17:47:58.063Z,27.29
2018-08-19T17:50:29.380Z,27.18
2018-08-19T17:53:01.110Z,27.09
2018-08-19T17:55:32.231Z,27.05
2018-08-19T17:58:03.673Z,27.00
2018-08-19T18:00:34.406Z,26.94
2018-08-19T18:03:05.016Z,26.89
2018-08-19T18:05:36.757Z,26.78
2018-08-19T18:08:10.932Z,26.64
2018-08-19T18:10:44.576Z,26.54
2018-08-19T18:13:14.800Z,26.47
2018-08-19T18:15:45.655Z,26.39
2018-08-19T18:18:16.139Z,26.33
2018-08-19T18:20:48.182Z,26.27
2018-08-19T18:23:24.578Z,26.23
2018-08-19T20:04:17.088Z,23.83
2018-08-19T20:06:47.162Z,23.81
2018-08-19T20:09:17.228Z,23.79
2018-08-19T20:11:47.288Z,23.74
2018-08-19T20:14:18.340Z,23.70
2018-08-19T20:16:48.541Z,23.68
2018-08-19T20:19:18.657Z,23.62
2018-08-19T20:21:49.349Z,23.58
2018-08-19T20:24:22.094Z,23.54
2018-08-19T20:26:52.178Z,23.53
2018-08-19T20:29:22.688Z,23.51
2018-08-19T20:31:52.642Z,23.44
2018-08-19T20:34:22.557Z,23.39
2018-08-19T20:36:53.111Z,23.34
2018-08-19T20:39:22.848Z,23.34
2018-08-19T20:41:52.966Z,23.33
2018-08-19T20:44:23.095Z,23.31
2018-08-19T20:46:57.234Z,23.27
2018-08-19T20:49:28.239Z,23.25
2018-08-19T20:51:58.438Z,23.18
2018-08-19T20:54:28.570Z,23.11
2018-08-19T20:56:59.352Z,23.03
2018-08-19T20:59:34.630Z,22.94
2018-08-19T21:02:06.250Z,22.85
2018-08-19T21:04:36.578Z,22.75
2018-08-19T21:07:08.254Z,22.72
2018-08-19T21:09:38.891Z,22.67
2018-08-19T21:12:09.187Z,22.64
2018-08-19T21:14:39.545Z,22.60
2018-08-19T21:17:09.985Z,22.54
2018-08-19T21:19:42.977Z,22.49
2018-08-19T21:22:13.380Z,22.41
2018-08-19T21:24:43.672Z,22.31
2018-08-19T21:27:13.838Z,22.23
2018-08-19T21:29:44.560Z,22.18
2018-08-19T21:32:14.827Z,22.12
2018-08-19T21:34:45.284Z,22.08
2018-08-19T21:37:22.351Z,22.06
2018-08-19T21:39:52.659Z,22.04
2018-08-19T21:42:23.076Z,22.03
2018-08-19T21:44:53.243Z,22.01
2018-08-19T21:47:23.805Z,22.00
2018-08-19T21:49:58.115Z,22.00
2018-08-19T21:52:28.728Z,21.99
2018-08-19T21:55:00.043Z,21.96
2018-08-19T21:57:29.688Z,21.93
2018-08-19T21:59:59.954Z,21.90
2018-08-19T22:02:34.830Z,21.88
2018-08-19T22:05:05.468Z,21.86
2018-08-19T22:07:36.468Z,21.84
2018-08-19T22:10:07.561Z,21.82
2018-08-19T22:12:41.543Z,21.81
2018-08-19T22:15:11.922Z,21.78
2018-08-19T22:17:42.168Z,21.73
2018-08-19T22:20:12.344Z,21.67
2018-08-19T22:22:42.924Z,21.61
2018-08-19T22:25:13.915Z,21.56
2018-08-19T22:27:44.100Z,21.52
2018-08-19T22:30:14.628Z,21.49
2018-08-19T22:32:44.876Z,21.49
2018-08-19T22:35:15.280Z,21.46
2018-08-19T22:37:45.876Z,21.44
2018-08-19T22:40:19.184Z,21.41
2018-08-19T22:42:49.518Z,21.36
2018-08-19T22:45:19.842Z,21.34
2018-08-19T22:47:53.834Z,21.33
2018-08-19T22:50:24.103Z,21.32
2018-08-19T22:52:54.536Z,21.30
2018-08-19T22:55:24.857Z,21.28
2018-08-19T22:58:01.875Z,21.28
2018-08-19T23:00:33.326Z,21.24
2018-08-19T23:03:07.862Z,21.21
2018-08-19T23:05:39.055Z,21.19
2018-08-19T23:08:11.276Z,21.16
2018-08-19T23:10:43.623Z,21.10
2018-08-19T23:13:28.931Z,21.11
2018-08-19T23:15:59.886Z,21.03
2018-08-19T23:18:30.975Z,20.96
2018-08-19T23:21:02.045Z,20.89
2018-08-19T23:23:32.866Z,20.87
2018-08-19T23:26:04.034Z,20.83
2018-08-19T23:28:34.886Z,20.82
2018-08-19T23:31:05.827Z,20.80
2018-08-19T23:33:37.584Z,20.75
2018-08-19T23:36:08.667Z,20.69
2018-08-19T23:38:40.225Z,20.64
2018-08-19T23:41:11.059Z,20.62
2018-08-19T23:43:41.960Z,20.59
2018-08-19T23:46:12.422Z,20.56
2018-08-19T23:48:42.673Z,20.55
2018-08-19T23:51:18.352Z,20.53
2018-08-19T23:53:50.015Z,20.51
2018-08-19T23:56:20.591Z,20.50
2018-08-19T23:58:51.897Z,20.51
